Time;durP1;ratioP1;P1;durP2;ratioP2;P2;SDS_P1;SDS_P2;PMS_P1;PMS_P2;Temp;Humidity;BMP_temperature;BMP_pressure;BME280_temperature;BME280_humidity;BME280_pressure;Samples;Min_cycle;Max_cycle;Signal;HPM_P1;HPM_P2
2021/11/16 00:02:16;;;;;;;9.05;6.78;;;;;;;18.87;28.52;95384.59;5076064;28;20052;-51
2021/11/16 00:04:43;;;;;;;10.15;7.20;;;;;;;18.84;28.81;95397.69;5064768;28;20048;-57
2021/11/16 00:07:11;;;;;;;10.52;6.68;;;;;;;18.39;29.94;95397.97;5059520;28;20037;-54
2021/11/16 00:09:38;;;;;;;7.65;6.78;;;;;;;19.68;27.53;95399.69;5076132;28;20066;-55
2021/11/16 00:12:05;;;;;;;9.07;6.97;;;;;;;18.97;28.90;95397.50;5068055;28;20044;-52
2021/11/16 00:14:33;;;;;;;8.25;7.00;;;;;;;18.86;29.11;95395.50;5076043;28;20056;-53
2021/11/16 00:17:00;;;;;;;8.20;6.90;;;;;;;19.67;28.09;95388.31;5075243;28;20064;-52
2021/11/16 00:19:28;;;;;;;7.65;6.10;;;;;;;19.35;28.14;95391.53;5066450;28;20091;-51
2021/11/16 00:21:59;;;;;;;9.77;7.60;;;;;;;19.15;28.26;95402.78;5075434;28;20060;-52
2021/11/16 00:24:38;;;;;;;7.82;6.68;;;;;;;19.00;28.56;95404.06;5075805;28;20402;-50
2021/11/16 00:27:06;;;;;;;8.70;7.38;;;;;;;19.04;28.22;95403.13;5073847;28;20052;-54
2021/11/16 00:29:35;;;;;;;8.00;6.95;;;;;;;18.84;28.74;95409.06;5074875;28;20044;-56
2021/11/16 00:32:05;;;;;;;8.82;7.80;;;;;;;19.21;28.18;95397.00;5095847;28;20058;-52
2021/11/16 00:34:33;;;;;;;8.35;7.32;;;;;;;20.07;27.00;95393.28;5096019;28;20063;-51
2021/11/16 00:37:01;;;;;;;9.10;7.72;;;;;;;19.39;27.80;95395.09;5067611;28;20064;-54
2021/11/16 00:39:28;;;;;;;8.43;7.28;;;;;;;19.95;27.08;95399.25;5075727;28;20493;-54
2021/11/16 00:41:55;;;;;;;13.40;8.30;;;;;;;19.09;28.21;95404.84;5075702;28;20056;-54
2021/11/16 00:44:22;;;;;;;7.93;7.13;;;;;;;19.34;27.96;95389.97;5073936;28;20048;-50
2021/11/16 00:46:49;;;;;;;8.63;7.68;;;;;;;19.02;28.28;95399.25;5075128;28;20040;-51
2021/11/16 00:49:16;;;;;;;9.73;7.15;;;;;;;19.22;28.11;95398.56;5064721;28;20083;-51
2021/11/16 00:51:43;;;;;;;7.80;6.85;;;;;;;18.76;28.63;95396.63;5061422;28;20056;-54
2021/11/16 00:54:11;;;;;;;7.00;6.30;;;;;;;19.41;27.79;95384.94;5055283;28;20041;-52
2021/11/16 00:56:38;;;;;;;7.00;6.30;;;;;;;18.90;28.63;95397.22;5056642;28;20075;-54
2021/11/16 00:59:05;;;;;;;8.80;7.10;;;;;;;19.23;28.30;95394.03;5074643;28;20335;-52
2021/11/16 01:01:32;;;;;;;7.85;6.88;;;;;;;18.74;28.74;95390.84;5075307;28;20063;-51
2021/11/16 01:04:00;;;;;;;7.47;6.68;;;;;;;19.14;28.21;95390.63;5086019;28;20054;-51
2021/11/16 01:06:27;;;;;;;7.85;7.05;;;;;;;19.28;27.98;95391.22;5077506;28;20063;-52
2021/11/16 01:08:54;;;;;;;7.80;7.00;;;;;;;19.29;27.99;95387.50;5088229;28;20052;-52
2021/11/16 01:11:21;;;;;;;8.13;7.32;;;;;;;19.18;27.96;95396.84;5054266;28;20059;-51
2021/11/16 01:13:49;;;;;;;7.95;6.78;;;;;;;19.15;28.28;95394.84;5080812;28;20059;-51
2021/11/16 01:16:16;;;;;;;7.90;6.28;;;;;;;19.19;28.14;95395.75;5095240;28;20044;-50
2021/11/16 01:18:43;;;;;;;7.18;6.47;;;;;;;18.69;28.98;95398.94;5067246;28;20060;-51
2021/11/16 01:21:10;;;;;;;11.50;7.95;;;;;;;19.54;27.54;95397.25;5072512;28;20055;-50
2021/11/16 01:23:38;;;;;;;8.43;7.53;;;;;;;19.68;27.75;95394.38;5077310;28;20047;-50
2021/11/16 01:26:05;;;;;;;8.30;7.50;;;;;;;19.07;28.44;95397.19;5076471;28;20044;-51
2021/11/16 01:28:32;;;;;;;8.57;7.60;;;;;;;18.72;29.25;95387.72;5068790;28;20060;-54
2021/11/16 01:31:03;;;;;;;8.90;6.85;;;;;;;19.74;27.76;95385.16;5054789;28;20056;-52
2021/11/16 01:33:41;;;;;;;7.95;6.55;;;;;;;18.82;29.20;95392.72;5067511;28;20051;-52
2021/11/16 01:36:10;;;;;;;7.32;6.18;;;;;;;19.65;28.04;95393.16;5070557;28;20059;-51
2021/11/16 01:38:38;;;;;;;9.23;6.45;;;;;;;18.76;29.51;95397.41;5073696;28;20423;-49
2021/11/16 01:41:06;;;;;;;6.60;5.90;;;;;;;19.48;28.47;95385.22;5056962;28;20048;-51
2021/11/16 01:43:33;;;;;;;7.38;6.20;;;;;;;19.05;29.00;95386.13;5081683;28;20044;-50
2021/11/16 01:46:03;;;;;;;6.68;6.00;;;;;;;18.86;29.57;95383.03;5093802;28;20465;-51
2021/11/16 01:48:31;;;;;;;7.35;6.05;;;;;;;19.73;28.27;95390.78;5067082;28;20367;-52
2021/11/16 01:50:58;;;;;;;7.40;6.00;;;;;;;20.07;27.72;95380.00;5054587;28;20056;-50
2021/11/16 01:53:25;;;;;;;7.85;6.25;;;;;;;19.47;28.20;95382.88;5072351;28;20047;-52
2021/11/16 01:55:53;;;;;;;8.00;6.28;;;;;;;18.90;29.04;95383.19;5093777;28;20058;-51
2021/11/16 01:58:20;;;;;;;7.47;6.68;;;;;;;19.30;28.65;95379.22;5077719;28;20051;-51
2021/11/16 02:00:47;;;;;;;9.10;6.68;;;;;;;18.12;30.49;95383.13;5070821;28;20052;-51
2021/11/16 02:03:15;;;;;;;9.80;8.43;;;;;;;18.85;29.70;95375.41;5069178;28;20047;-52
2021/11/16 02:05:50;;;;;;;12.10;10.55;;;;;;;18.19;31.07;95378.16;5080934;28;20049;-52
2021/11/16 02:08:19;;;;;;;12.55;10.88;;;;;;;18.34;30.97;95371.66;5070091;28;20052;-50
2021/11/16 02:10:48;;;;;;;13.00;11.57;;;;;;;18.83;29.97;95365.13;5074523;28;20052;-52
2021/11/16 02:13:22;;;;;;;12.75;11.15;;;;;;;18.80;30.16;95371.06;5073973;28;20364;-50
2021/11/16 02:15:50;;;;;;;13.43;11.45;;;;;;;18.43;30.57;95372.41;5074186;28;20056;-56
2021/11/16 02:18:18;;;;;;;12.10;10.77;;;;;;;18.57;30.38;95366.97;5067879;28;20087;-49
2021/11/16 02:20:46;;;;;;;12.35;10.43;;;;;;;18.29;31.04;95367.28;5050977;28;20053;-52
2021/11/16 02:23:14;;;;;;;12.52;10.95;;;;;;;18.64;30.19;95362.03;5078557;28;20336;-53
2021/11/16 02:25:44;;;;;;;13.52;11.63;;;;;;;18.95;29.86;95367.91;5094253;28;20059;-52
2021/11/16 02:28:11;;;;;;;12.20;10.55;;;;;;;18.02;31.14;95367.56;5079577;28;20447;-52
2021/11/16 02:30:38;;;;;;;14.80;11.35;;;;;;;18.00;31.20;95357.28;5052749;28;20049;-50
2021/11/16 02:33:05;;;;;;;13.27;10.50;;;;;;;18.13;30.75;95359.00;5072572;28;20060;-51
2021/11/16 02:35:33;;;;;;;13.02;10.50;;;;;;;18.76;29.81;95356.88;5073870;28;20051;-56
2021/11/16 02:38:00;;;;;;;11.30;10.20;;;;;;;18.13;30.66;95358.22;5073025;28;20064;-50
2021/11/16 02:40:29;;;;;;;12.18;10.65;;;;;;;18.46;30.10;95356.69;5073755;28;20367;-51
2021/11/16 02:42:56;;;;;;;11.13;9.93;;;;;;;18.53;30.05;95350.16;5075657;28;20391;-54
2021/11/16 02:45:25;;;;;;;10.88;9.52;;;;;;;19.27;28.54;95355.22;5073271;28;20056;-56
2021/11/16 02:47:52;;;;;;;11.35;10.13;;;;;;;18.43;30.17;95349.38;5051862;28;20036;-52
2021/11/16 02:50:21;;;;;;;10.95;9.85;;;;;;;17.96;30.81;95353.72;5066405;28;20060;-54
2021/11/16 02:52:48;;;;;;;11.48;9.48;;;;;;;19.29;28.79;95340.56;5073659;28;20064;-54
2021/11/16 02:55:16;;;;;;;11.48;9.25;;;;;;;19.19;28.77;95340.09;5093097;28;20040;-52
2021/11/16 02:57:43;;;;;;;12.25;9.05;;;;;;;18.99;29.12;95342.31;5092889;28;20055;-52
2021/11/16 03:00:14;;;;;;;12.18;9.23;;;;;;;18.87;29.15;95349.38;5092224;28;20059;-55
2021/11/16 03:02:43;;;;;;;10.25;9.35;;;;;;;19.30;28.62;95351.94;5086933;28;20057;-55
2021/11/16 03:05:10;;;;;;;10.70;9.60;;;;;;;18.62;29.65;95350.94;5072755;28;20383;-53
2021/11/16 03:07:45;;;;;;;10.23;8.82;;;;;;;19.40;28.77;95356.88;5072766;28;20075;-50
2021/11/16 03:10:13;;;;;;;9.57;8.57;;;;;;;18.49;29.92;95350.78;5054917;28;20053;-55
2021/11/16 03:12:40;;;;;;;10.02;8.65;;;;;;;18.98;29.07;95356.66;5059705;28;20083;-51
2021/11/16 03:15:08;;;;;;;9.45;8.45;;;;;;;19.05;28.82;95359.63;5075031;28;20048;-50
2021/11/16 03:17:35;;;;;;;10.02;8.60;;;;;;;19.45;28.21;95343.44;5066232;28;20045;-50
2021/11/16 03:20:12;;;;;;;10.65;8.15;;;;;;;19.17;28.99;95358.19;5064582;28;20052;-53
2021/11/16 03:22:56;;;;;;;8.80;7.90;;;;;;;19.63;28.26;95358.22;5074532;28;20052;-50
2021/11/16 03:25:28;;;;;;;8.75;7.85;;;;;;;19.37;28.55;95349.56;5079242;28;20059;-51
2021/11/16 03:27:59;;;;;;;9.10;7.87;;;;;;;19.29;28.49;95358.31;5076132;28;20044;-51
2021/11/16 03:30:28;;;;;;;9.45;8.20;;;;;;;19.41;28.15;95353.13;5075734;28;20632;-54
2021/11/16 03:32:56;;;;;;;9.20;8.30;;;;;;;19.24;28.33;95353.19;5077618;28;20054;-52
2021/11/16 03:35:23;;;;;;;10.35;8.70;;;;;;;19.87;27.62;95359.50;5086676;28;20047;-51
2021/11/16 03:37:54;;;;;;;10.27;8.77;;;;;;;19.17;28.44;95355.53;5075863;28;20049;-54
2021/11/16 03:40:22;;;;;;;8.63;7.72;;;;;;;19.35;28.18;95354.41;5075643;28;20059;-51
2021/11/16 03:42:51;;;;;;;8.60;7.70;;;;;;;19.58;27.85;95361.06;5069413;28;20045;-51
2021/11/16 03:45:25;;;;;;;9.70;7.72;;;;;;;19.87;27.38;95354.19;5087497;28;20070;-54
2021/11/16 03:47:52;;;;;;;9.65;7.35;;;;;;;19.66;27.74;95359.44;5072708;28;20052;-54
2021/11/16 03:50:24;;;;;;;8.30;7.47;;;;;;;19.04;28.82;95358.09;5007162;28;1219702;-53
2021/11/16 03:52:54;;;;;;;8.15;7.18;;;;;;;19.21;28.60;95353.81;5058793;28;20040;-52
2021/11/16 03:55:24;;;;;;;8.05;7.18;;;;;;;19.31;28.21;95358.78;5082691;28;20095;-56
2021/11/16 03:57:54;;;;;;;7.93;6.90;;;;;;;19.24;28.14;95361.91;5076279;28;20359;-52
2021/11/16 04:00:25;;;;;;;8.30;6.97;;;;;;;19.42;27.95;95359.97;5072532;28;20562;-48
2021/11/16 04:02:53;;;;;;;8.63;7.47;;;;;;;18.95;28.56;95359.94;5059239;28;20052;-56
2021/11/16 04:05:20;;;;;;;10.60;7.40;;;;;;;19.17;28.37;95347.59;5076157;28;20071;-54
2021/11/16 04:07:47;;;;;;;8.75;7.78;;;;;;;19.61;27.81;95341.84;5060615;28;20044;-54
2021/11/16 04:10:14;;;;;;;9.05;7.53;;;;;;;19.15;28.34;95349.78;5055577;28;20040;-54
2021/11/16 04:12:45;;;;;;;8.35;7.55;;;;;;;18.75;28.97;95342.84;5056209;28;20053;-55
2021/11/16 04:15:15;;;;;;;8.20;7.40;;;;;;;19.58;27.71;95342.50;5075224;28;20055;-54
2021/11/16 04:17:43;;;;;;;8.48;7.57;;;;;;;19.16;28.31;95346.03;5075344;28;20351;-51
2021/11/16 04:20:17;;;;;;;8.55;7.47;;;;;;;19.19;28.23;95346.19;5068408;28;20055;-51
2021/11/16 04:22:44;;;;;;;7.90;7.05;;;;;;;19.10;28.28;95348.84;5074661;28;20055;-55
2021/11/16 04:25:12;;;;;;;9.70;7.28;;;;;;;18.78;28.83;95357.34;5075900;28;20048;-54
2021/11/16 04:27:41;;;;;;;9.00;7.32;;;;;;;19.08;28.48;95345.75;5075767;28;20456;-52
2021/11/16 04:30:11;;;;;;;7.85;7.05;;;;;;;18.98;28.47;95348.72;5075972;28;20052;-51
2021/11/16 04:32:38;;;;;;;8.02;7.22;;;;;;;19.53;27.63;95345.31;5075843;28;20439;-50
2021/11/16 04:35:06;;;;;;;7.90;7.05;;;;;;;19.52;27.82;95354.34;5067459;28;20040;-51
2021/11/16 04:37:34;;;;;;;8.45;7.50;;;;;;;19.69;27.17;95346.31;5075496;28;20041;-51
2021/11/16 04:40:01;;;;;;;8.65;7.47;;;;;;;19.68;27.37;95342.13;5057233;28;20056;-51
2021/11/16 04:42:28;;;;;;;8.75;7.82;;;;;;;19.64;27.18;95346.50;5055501;28;20132;-52
2021/11/16 04:44:55;;;;;;;8.63;7.72;;;;;;;19.48;27.57;95352.63;5074136;28;20052;-51
2021/11/16 04:47:32;;;;;;;9.23;8.13;;;;;;;19.74;27.22;95345.34;5081392;28;20051;-49
2021/11/16 04:50:15;;;;;;;10.23;8.43;;;;;;;19.12;28.07;95345.91;5061039;28;20057;-50
2021/11/16 05:03:26;;;;;;;10.35;8.07;;;;;;;18.92;28.38;95342.03;5055205;28;20049;-53
2021/11/16 05:05:54;;;;;;;10.18;7.68;;;;;;;19.53;27.52;95350.63;5071169;28;20048;-52
2021/11/16 05:08:21;;;;;;;10.52;8.52;;;;;;;17.95;29.94;95351.34;5089177;28;20048;-54
2021/11/16 05:10:48;;;;;;;10.25;8.85;;;;;;;17.48;30.65;95358.97;5035465;28;20068;-51
2021/11/16 05:13:15;;;;;;;9.95;8.35;;;;;;;18.04;29.81;95357.44;5055083;28;20045;-53
2021/11/16 05:15:44;;;;;;;9.57;7.93;;;;;;;18.62;28.68;95354.38;5069172;28;20407;-51
2021/11/16 05:18:11;;;;;;;9.60;8.20;;;;;;;18.27;29.24;95369.47;5069984;28;20063;-55
2021/11/16 05:20:38;;;;;;;9.15;7.75;;;;;;;18.19;29.22;95368.34;5071273;28;20056;-53
2021/11/16 05:23:07;;;;;;;9.00;7.97;;;;;;;18.33;28.68;95354.97;5074502;28;20044;-45
2021/11/16 05:25:34;;;;;;;8.50;7.60;;;;;;;17.67;29.94;95359.50;5069098;28;20048;-45
2021/11/16 05:28:02;;;;;;;9.73;7.45;;;;;;;17.74;29.90;95361.75;5072135;28;20055;-49
2021/11/16 05:30:30;;;;;;;10.43;8.13;;;;;;;18.66;28.24;95347.38;5067982;28;20048;-58
2021/11/16 05:32:57;;;;;;;8.80;7.90;;;;;;;18.07;29.21;95357.59;5054889;28;20052;-55
2021/11/16 05:35:24;;;;;;;8.80;7.90;;;;;;;18.10;29.10;95348.25;5074415;28;20375;-55
2021/11/16 05:37:51;;;;;;;8.80;7.90;;;;;;;17.76;29.90;95365.63;5078201;28;20055;-56
2021/11/16 05:40:18;;;;;;;9.35;7.90;;;;;;;17.36;30.70;95366.69;5060788;28;20040;-55
2021/11/16 05:42:45;;;;;;;10.18;8.05;;;;;;;18.08;29.59;95371.59;5050954;28;20048;-55
2021/11/16 05:45:12;;;;;;;9.98;8.90;;;;;;;18.01;29.61;95371.28;5070553;28;20493;-50
2021/11/16 05:47:41;;;;;;;10.13;8.30;;;;;;;17.90;29.41;95372.66;5070021;28;20048;-51
2021/11/16 05:50:10;;;;;;;10.68;8.68;;;;;;;18.31;28.84;95375.69;5064212;28;20057;-56
2021/11/16 05:52:38;;;;;;;10.68;8.20;;;;;;;18.07;29.35;95370.06;5060329;28;20045;-55
2021/11/16 05:55:09;;;;;;;10.73;8.95;;;;;;;18.49;28.62;95371.97;5059295;28;20045;-52
2021/11/16 05:57:37;;;;;;;10.57;8.57;;;;;;;18.32;28.95;95382.53;5064669;28;20455;-50
2021/11/16 06:00:08;;;;;;;12.07;8.55;;;;;;;18.57;28.64;95382.88;5073570;28;20049;-52
2021/11/16 06:02:36;;;;;;;12.50;9.32;;;;;;;18.37;29.43;95379.75;5074079;28;20067;-55
2021/11/16 06:05:04;;;;;;;11.00;9.02;;;;;;;18.01;29.76;95384.53;5074062;28;20351;-52
2021/11/16 06:07:31;;;;;;;10.43;8.57;;;;;;;18.55;29.32;95380.53;5074034;28;20055;-54
2021/11/16 06:09:58;;;;;;;11.77;9.77;;;;;;;18.24;29.35;95380.69;5074342;28;20051;-53
2021/11/16 06:12:25;;;;;;;13.68;9.23;;;;;;;18.36;29.30;95383.47;5074030;28;20041;-54
2021/11/16 06:14:52;;;;;;;11.85;9.38;;;;;;;19.51;27.39;95384.59;5071828;28;20048;-55
2021/11/16 06:17:20;;;;;;;12.07;9.07;;;;;;;18.98;28.21;95388.47;5079751;28;20040;-55
2021/11/16 06:19:47;;;;;;;13.02;9.13;;;;;;;19.22;27.90;95382.66;5063047;28;20041;-55
2021/11/16 06:22:14;;;;;;;10.07;8.40;;;;;;;18.64;28.64;95381.34;5036784;28;20052;-53
2021/11/16 06:24:42;;;;;;;12.20;9.40;;;;;;;18.24;29.17;95390.47;5053825;28;20079;-51
2021/11/16 06:27:09;;;;;;;10.30;8.70;;;;;;;18.90;28.20;95391.13;5073892;28;20044;-56
2021/11/16 06:29:36;;;;;;;18.35;9.70;;;;;;;19.45;27.42;95395.69;5074063;28;20614;-54
2021/11/16 06:32:06;;;;;;;11.48;8.77;;;;;;;19.56;26.90;95402.25;5070144;28;20048;-53
2021/11/16 06:34:34;;;;;;;9.35;7.80;;;;;;;18.94;27.94;95395.50;5056161;28;20055;-52
2021/11/16 06:37:03;;;;;;;10.88;9.27;;;;;;;18.93;27.96;95391.28;5076794;28;20059;-55
2021/11/16 06:39:30;;;;;;;11.85;9.05;;;;;;;19.25;27.30;95383.88;5093431;28;20044;-56
2021/11/16 06:41:59;;;;;;;10.13;8.48;;;;;;;18.74;28.32;95393.50;5079876;28;20059;-51
2021/11/16 06:44:26;;;;;;;10.65;8.98;;;;;;;19.22;27.63;95387.94;5057571;28;20359;-53
2021/11/16 06:46:54;;;;;;;9.55;8.02;;;;;;;18.80;28.16;95397.53;5079620;28;20459;-52
2021/11/16 06:49:21;;;;;;;11.57;8.85;;;;;;;18.83;28.01;95386.31;5073731;28;20443;-56
2021/11/16 06:51:51;;;;;;;9.25;7.55;;;;;;;18.81;28.14;95388.50;5057974;28;20060;-53
2021/11/16 06:54:24;;;;;;;10.43;8.60;;;;;;;19.05;27.57;95388.78;5040045;28;20060;-52
2021/11/16 06:56:52;;;;;;;9.45;8.48;;;;;;;18.70;28.30;95398.63;5031822;28;20040;-53
2021/11/16 06:59:21;;;;;;;9.90;8.05;;;;;;;18.39;28.78;95388.16;5076911;28;20052;-52
2021/11/16 07:01:48;;;;;;;11.52;9.23;;;;;;;18.74;28.00;95398.78;5076888;28;20044;-52
2021/11/16 07:04:16;;;;;;;12.48;8.85;;;;;;;18.50;28.62;95399.22;5076310;28;20044;-51
2021/11/16 07:06:45;;;;;;;9.68;8.48;;;;;;;18.79;28.15;95396.00;5077619;28;20048;-51
2021/11/16 07:09:14;;;;;;;10.43;8.63;;;;;;;19.28;27.57;95407.13;5076773;28;20383;-53
2021/11/16 07:11:45;;;;;;;9.18;8.25;;;;;;;18.91;28.05;95401.41;5077428;28;20439;-53
2021/11/16 07:14:15;;;;;;;9.27;7.72;;;;;;;18.94;27.89;95400.78;5076836;28;20052;-52
2021/11/16 07:16:57;;;;;;;9.57;7.68;;;;;;;19.36;27.36;95403.69;5065827;28;20360;-55
2021/11/16 07:19:33;;;;;;;9.43;7.97;;;;;;;18.68;28.22;95415.91;5060553;28;20048;-53
2021/11/16 07:22:05;;;;;;;10.07;8.90;;;;;;;18.99;27.97;95418.38;5076839;28;20044;-52
2021/11/16 07:24:44;;;;;;;9.98;8.05;;;;;;;18.47;28.86;95416.50;5084261;28;20048;-53
2021/11/16 07:27:12;;;;;;;9.95;8.07;;;;;;;18.74;28.77;95409.38;5097514;28;20366;-54
2021/11/16 07:29:42;;;;;;;9.98;7.90;;;;;;;18.82;28.38;95410.47;5097412;28;20513;-51
2021/11/16 07:32:19;;;;;;;12.30;7.97;;;;;;;18.38;29.29;95421.00;5095823;28;20052;-53
2021/11/16 07:34:46;;;;;;;9.75;7.70;;;;;;;18.78;28.39;95420.91;5076808;28;20484;-53
2021/11/16 07:37:19;;;;;;;9.77;7.68;;;;;;;18.86;28.39;95420.13;5076835;28;20394;-53
2021/11/16 07:39:46;;;;;;;9.30;7.28;;;;;;;18.12;29.29;95417.53;5076928;28;20045;-49
2021/11/16 07:42:14;;;;;;;10.88;7.20;;;;;;;18.83;28.25;95410.16;5062113;28;20045;-52
2021/11/16 07:44:41;;;;;;;10.80;7.38;;;;;;;18.76;28.43;95420.44;5082576;28;20059;-53
2021/11/16 07:47:08;;;;;;;9.63;8.50;;;;;;;19.32;27.58;95419.44;5039287;28;20041;-50
2021/11/16 07:49:48;;;;;;;9.75;8.52;;;;;;;18.63;28.67;95424.03;5061760;28;20051;-52
2021/11/16 07:52:15;;;;;;;8.90;6.93;;;;;;;19.40;27.50;95436.41;5076626;28;20119;-59
2021/11/16 07:54:42;;;;;;;10.15;7.05;;;;;;;19.34;27.43;95427.84;5057377;28;20044;-58
2021/11/16 07:57:10;;;;;;;8.40;6.50;;;;;;;19.68;26.72;95421.69;5060539;28;20051;-59
2021/11/16 07:59:38;;;;;;;9.02;6.78;;;;;;;19.15;27.53;95419.47;5070629;28;20048;-58
2021/11/16 08:02:09;;;;;;;10.15;7.80;;;;;;;19.18;27.63;95418.84;5061915;28;20048;-56
2021/11/16 08:09:51;;;;;;;8.48;6.30;;;;;;;19.43;27.51;95427.81;5061913;28;20059;-53
2021/11/16 08:12:26;;;;;;;7.53;6.50;;;;;;;19.17;28.25;95416.50;5065378;28;20045;-51
2021/11/16 08:15:00;;;;;;;8.02;5.75;;;;;;;19.60;27.72;95429.69;5059840;28;20049;-54
2021/11/16 08:17:28;;;;;;;6.40;5.03;;;;;;;19.87;27.16;95415.22;5062430;28;20383;-50
2021/11/16 08:20:08;;;;;;;7.50;6.25;;;;;;;18.66;29.58;95413.56;5052379;28;20041;-53
2021/11/16 08:22:36;;;;;;;6.82;5.65;;;;;;;18.15;29.77;95425.63;5060808;28;20451;-54
2021/11/16 08:25:04;;;;;;;9.15;5.57;;;;;;;19.32;27.90;95422.09;5059740;28;20049;-58
2021/11/16 08:27:34;;;;;;;7.30;5.32;;;;;;;19.11;28.24;95415.91;5061043;28;20052;-54
2021/11/16 08:30:06;;;;;;;8.30;5.95;;;;;;;19.00;28.43;95414.66;5059242;28;20037;-59
2021/11/16 08:32:35;;;;;;;8.90;6.97;;;;;;;19.01;28.52;95419.66;5063417;28;20359;-60
2021/11/16 08:35:12;;;;;;;10.63;6.93;;;;;;;19.52;28.09;95423.28;5060012;28;20060;-57
2021/11/16 08:37:41;;;;;;;11.07;7.80;;;;;;;19.04;28.48;95424.31;5064256;28;20048;-51
2021/11/16 08:40:13;;;;;;;7.85;7.05;;;;;;;19.04;28.58;95424.31;5063758;28;20466;-57
2021/11/16 08:42:43;;;;;;;10.55;7.05;;;;;;;19.32;27.99;95430.06;5058575;28;20060;-56
2021/11/16 08:45:17;;;;;;;7.22;5.70;;;;;;;19.42;27.97;95419.09;5065960;28;20041;-57
2021/11/16 08:47:45;;;;;;;5.15;4.65;;;;;;;19.51;27.73;95421.72;5064250;28;20044;-55
2021/11/16 08:50:35;;;;;;;7.00;4.30;;;;;;;19.79;27.53;95421.38;5061892;28;20090;-50
2021/11/16 08:53:06;;;;;;;6.78;4.65;;;;;;;19.13;28.29;95421.66;5066677;28;20041;-60
2021/11/16 08:55:36;;;;;;;7.93;4.72;;;;;;;18.82;28.93;95431.66;5057990;28;20045;-56
2021/11/16 08:58:07;;;;;;;5.35;3.95;;;;;;;19.05;28.56;95415.28;5071733;28;20052;-58
2021/11/16 09:00:46;;;;;;;6.00;4.20;;;;;;;18.96;28.94;95417.16;5065198;28;20067;-53
2021/11/16 09:03:17;;;;;;;7.30;4.53;;;;;;;19.22;28.53;95426.94;5077713;28;20054;-49
2021/11/16 09:05:49;;;;;;;5.75;4.57;;;;;;;19.24;28.37;95406.19;5057100;28;20059;-54
2021/11/16 09:08:24;;;;;;;5.65;4.82;;;;;;;19.27;28.33;95411.66;5072202;28;20047;-58
2021/11/16 09:10:58;;;;;;;6.53;4.30;;;;;;;19.02;28.57;95410.63;5055181;28;20044;-53
2021/11/16 09:13:28;;;;;;;6.57;4.68;;;;;;;19.76;27.61;95417.44;5069991;28;20435;-55
2021/11/16 09:16:04;;;;;;;6.78;4.53;;;;;;;19.09;28.73;95416.22;5075116;28;20063;-51
2021/11/16 09:18:40;;;;;;;7.78;5.07;;;;;;;19.49;27.96;95410.66;5067127;28;20061;-53
2021/11/16 09:21:11;;;;;;;6.07;4.90;;;;;;;20.09;27.11;95398.25;5058902;28;20053;-58
2021/11/16 09:23:41;;;;;;;7.70;4.90;;;;;;;19.52;27.70;95396.78;5071367;28;20041;-51
2021/11/16 09:26:20;;;;;;;7.90;4.07;;;;;;;19.65;27.74;95400.34;5074963;28;20075;-50
2021/11/16 09:28:56;;;;;;;7.13;4.40;;;;;;;20.31;26.48;95401.41;5074950;28;20049;-52
2021/11/16 09:31:29;;;;;;;7.15;4.18;;;;;;;20.05;26.84;95403.44;5076604;28;20044;-48
2021/11/16 09:34:00;;;;;;;6.38;4.90;;;;;;;19.99;27.24;95404.69;5082735;28;20041;-49
2021/11/16 09:36:30;;;;;;;5.57;4.30;;;;;;;19.26;28.34;95393.44;5074450;28;20059;-54
2021/11/16 09:39:04;;;;;;;6.32;3.92;;;;;;;20.30;26.90;95391.88;5070719;28;20060;-55
2021/11/16 09:41:41;;;;;;;5.93;4.72;;;;;;;19.71;27.63;95391.09;5065715;28;20052;-51
2021/11/16 09:44:14;;;;;;;5.18;4.30;;;;;;;20.42;26.85;95390.41;5067724;28;20044;-49
2021/11/16 09:46:48;;;;;;;6.18;4.13;;;;;;;20.54;26.33;95379.84;5065035;28;20376;-56
2021/11/16 09:49:17;;;;;;;5.50;4.57;;;;;;;21.03;25.87;95372.09;5044472;28;20049;-49
2021/11/16 09:52:17;;;;;;;5.60;4.20;;;;;;;20.29;27.14;95374.38;5054300;28;20487;-50
2021/11/16 09:54:46;;;;;;;4.32;3.67;;;;;;;20.83;26.23;95379.00;5071272;28;20055;-55
2021/11/16 09:57:14;;;;;;;4.97;3.65;;;;;;;20.84;26.46;95376.03;5073587;28;20048;-49
2021/11/16 09:59:46;;;;;;;5.03;3.65;;;;;;;20.36;26.88;95359.81;5074034;28;20048;-50
2021/11/16 10:02:23;;;;;;;4.25;3.33;;;;;;;21.15;25.81;95369.47;5074209;28;20064;-59
2021/11/16 10:04:51;;;;;;;4.32;3.30;;;;;;;21.61;25.32;95354.28;5064187;28;20064;-50
2021/11/16 10:07:20;;;;;;;5.90;3.58;;;;;;;19.65;28.16;95363.97;5054316;28;20052;-59
2021/11/16 10:09:49;;;;;;;4.43;3.53;;;;;;;19.81;27.83;95352.84;5066509;28;20048;-56
2021/11/16 10:12:18;;;;;;;4.80;3.95;;;;;;;20.60;26.67;95350.13;5053938;28;20436;-53
2021/11/16 10:14:46;;;;;;;5.85;3.65;;;;;;;20.56;26.66;95343.91;5056416;28;20052;-62
2021/11/16 10:17:13;;;;;;;8.45;4.18;;;;;;;20.58;27.13;95346.25;5074088;28;20377;-53
2021/11/16 10:19:40;;;;;;;4.95;3.67;;;;;;;20.11;27.45;95342.97;5064924;28;20048;-52
2021/11/16 10:22:11;;;;;;;5.32;2.97;;;;;;;23.25;23.32;95333.91;5068386;28;20045;-52
2021/11/16 10:24:39;;;;;;;5.97;3.50;;;;;;;22.23;24.74;95331.84;5057874;28;20080;-58
2021/11/16 10:27:26;;;;;;;3.97;3.30;;;;;;;21.39;25.45;95319.03;5045768;28;20067;-54
2021/11/16 10:30:24;;;;;;;3.40;3.10;;;;;;;20.18;27.26;95328.09;5049200;28;20045;-60
2021/11/16 10:33:07;;;;;;;10.82;9.02;;;;;;;21.15;26.04;95333.03;5042777;28;20044;-56
2021/11/16 10:35:38;;;;;;;5.43;3.40;;;;;;;19.87;28.22;95317.06;5064634;28;20049;-55
2021/11/16 10:38:08;;;;;;;3.70;2.90;;;;;;;21.53;25.82;95313.38;5052884;28;20045;-58
2021/11/16 10:40:37;;;;;;;5.85;3.63;;;;;;;21.61;25.49;95323.13;5056723;28;20057;-51
2021/11/16 10:43:05;;;;;;;5.22;3.80;;;;;;;21.34;25.85;95313.94;5056206;28;20045;-55
2021/11/16 10:45:35;;;;;;;6.82;3.38;;;;;;;21.70;25.20;95320.34;5073870;28;20051;-53
2021/11/16 10:48:08;;;;;;;4.82;3.80;;;;;;;20.52;27.16;95315.66;5069201;28;20049;-52
2021/11/16 10:50:37;;;;;;;6.57;2.83;;;;;;;21.89;25.19;95315.25;5055409;28;20395;-50
2021/11/16 10:53:14;;;;;;;3.83;2.90;;;;;;;22.38;24.45;95305.31;5055706;28;20052;-57
2021/11/16 10:56:09;;;;;;;4.57;2.75;;;;;;;20.14;27.59;95311.25;5053757;28;20045;-56
2021/11/16 10:58:39;;;;;;;5.38;3.55;;;;;;;21.48;25.56;95298.41;5056052;28;20472;-55
2021/11/16 11:01:08;;;;;;;4.57;3.30;;;;;;;20.53;27.15;95298.63;5073566;28;20225;-53
2021/11/16 11:03:44;;;;;;;5.65;2.92;;;;;;;20.38;27.35;95292.00;5072930;28;20056;-50
2021/11/16 11:06:20;;;;;;;4.88;3.00;;;;;;;20.66;27.23;95294.13;5073745;28;20044;-50
2021/11/16 11:08:49;;;;;;;3.75;2.88;;;;;;;20.18;27.96;95303.41;5073879;28;20363;-56
2021/11/16 11:11:55;;;;;;;4.22;3.25;;;;;;;20.54;27.20;95297.50;5093676;28;20052;-50
2021/11/16 11:14:38;;;;;;;4.85;2.80;;;;;;;20.96;26.79;95292.13;5077316;28;20118;-51
2021/11/16 11:17:11;;;;;;;3.70;2.95;;;;;;;20.38;27.88;95283.28;5073654;28;20052;-52
2021/11/16 11:19:43;;;;;;;3.63;2.70;;;;;;;20.51;27.58;95292.84;5053271;28;20053;-54
2021/11/16 11:22:19;;;;;;;;;;;;;;;21.70;25.58;95283.09;5054109;28;20063;-55
2021/11/16 11:30:11;;;;;;;7.35;2.20;;;;;;;20.30;28.18;95285.69;5076231;28;20048;-55
2021/11/16 11:32:41;;;;;;;3.72;1.88;;;;;;;20.48;27.77;95274.91;5039331;28;20360;-57
2021/11/16 11:35:12;;;;;;;2.70;2.22;;;;;;;20.25;28.13;95277.88;5067250;28;20055;-55
2021/11/16 11:37:41;;;;;;;2.78;2.15;;;;;;;20.36;27.90;95274.84;5077014;28;20051;-54
2021/11/16 11:40:16;;;;;;;2.53;1.98;;;;;;;20.53;27.64;95285.34;5076736;28;20045;-56
2021/11/16 11:42:51;;;;;;;5.03;2.72;;;;;;;21.17;26.64;95296.25;5076747;28;20044;-51
2021/11/16 11:45:26;;;;;;;3.72;2.40;;;;;;;20.62;27.78;95281.50;5055470;28;20048;-58
2021/11/16 11:48:08;;;;;;;4.82;3.50;;;;;;;20.37;28.11;95277.19;5054835;28;20049;-49
2021/11/16 11:50:41;;;;;;;3.53;2.95;;;;;;;20.36;28.49;95280.16;5087352;28;20754;-61
2021/11/16 11:53:14;;;;;;;4.90;2.45;;;;;;;20.36;28.35;95265.00;5095023;28;20051;-60
2021/11/16 11:55:55;;;;;;;7.10;2.90;;;;;;;19.70;29.39;95276.25;5076740;28;20052;-51
2021/11/16 11:58:24;;;;;;;5.30;2.70;;;;;;;19.93;29.30;95278.63;5076458;28;20051;-49
2021/11/16 12:00:56;;;;;;;5.18;2.95;;;;;;;20.01;28.95;95277.75;5076613;28;20697;-55
2021/11/16 12:03:23;;;;;;;6.53;2.90;;;;;;;20.46;28.14;95274.47;5076315;28;20055;-50
2021/11/16 12:05:51;;;;;;;4.35;2.53;;;;;;;20.06;29.15;95266.19;5075772;28;20052;-58
2021/11/16 12:08:19;;;;;;;5.78;2.85;;;;;;;20.16;28.66;95255.97;5075674;28;20048;-54